地図

経路データ

SID SEASON NUMBER BASIN SUBBASIN NAME ISO_TIME NATURE LAT LON WMO_WIND WMO_PRES WMO_AGENCY TRACK_TYPE DIST2LAND LANDFALL IFLAG USA_AGENCY USA_ATCF_ID USA_LAT USA_LON USA_RECORD USA_STATUS USA_WIND USA_PRES USA_SSHS USA_R34_NE USA_R34_SE USA_R34_SW USA_R34_NW USA_R50_NE USA_R50_SE USA_R50_SW USA_R50_NW USA_R64_NE USA_R64_SE USA_R64_SW USA_R64_NW USA_POCI USA_ROCI USA_RMW USA_EYE TOKYO_LAT TOKYO_LON TOKYO_GRADE TOKYO_WIND TOKYO_PRES TOKYO_R50_DIR TOKYO_R50_LONG TOKYO_R50_SHORT TOKYO_R30_DIR TOKYO_R30_LONG TOKYO_R30_SHORT TOKYO_LAND CMA_LAT CMA_LON CMA_CAT CMA_WIND CMA_PRES HKO_LAT HKO_LON HKO_CAT HKO_WIND HKO_PRES NEWDELHI_LAT NEWDELHI_LON NEWDELHI_GRADE NEWDELHI_WIND NEWDELHI_PRES NEWDELHI_CI NEWDELHI_DP NEWDELHI_POCI REUNION_LAT REUNION_LON REUNION_TYPE REUNION_WIND REUNION_PRES REUNION_TNUM REUNION_CI REUNION_RMW REUNION_R34_NE REUNION_R34_SE REUNION_R34_SW REUNION_R34_NW REUNION_R50_NE REUNION_R50_SE REUNION_R50_SW REUNION_R50_NW REUNION_R64_NE REUNION_R64_SE REUNION_R64_SW REUNION_R64_NW BOM_LAT BOM_LON BOM_TYPE BOM_WIND BOM_PRES BOM_TNUM BOM_CI BOM_RMW BOM_R34_NE BOM_R34_SE BOM_R34_SW BOM_R34_NW BOM_R50_NE BOM_R50_SE BOM_R50_SW BOM_R50_NW BOM_R64_NE BOM_R64_SE BOM_R64_SW BOM_R64_NW BOM_ROCI BOM_POCI BOM_EYE BOM_POS_METHOD BOM_PRES_METHOD NADI_LAT NADI_LON NADI_CAT NADI_WIND NADI_PRES WELLINGTON_LAT WELLINGTON_LON WELLINGTON_WIND WELLINGTON_PRES DS824_LAT DS824_LON DS824_STAGE DS824_WIND DS824_PRES TD9636_LAT TD9636_LON TD9636_STAGE TD9636_WIND TD9636_PRES TD9635_LAT TD9635_LON TD9635_WIND TD9635_PRES TD9635_ROCI NEUMANN_LAT NEUMANN_LON NEUMANN_CLASS NEUMANN_WIND NEUMANN_PRES MLC_LAT MLC_LON MLC_CLASS MLC_WIND MLC_PRES USA_GUST BOM_GUST BOM_GUST_PER REUNION_GUST REUNION_GUST_PER USA_SEAHGT USA_SEARAD_NE USA_SEARAD_SE USA_SEARAD_SW USA_SEARAD_NW STORM_SPEED STORM_DIR
1992331S11082 1993 126 SI MM NOT_NAMED 1992-11-26 00:00:00 TS -10.5000 82.4000 main 1848 1847 O___________O_ jtwc_sh SH041993 -10.5000 82.4000 15 -1 -10.5000 82.4000 TC 15 3 275
1992331S11082 1993 126 SI MM NOT_NAMED 1992-11-26 03:00:00 TS -10.4875 82.2525 main 1847 1845 P___________P_ SH041993 -10.4875 82.2525 15 -1 -10.4875 82.2525 TC 15 3 270
1992331S11082 1993 126 SI MM NOT_NAMED 1992-11-26 06:00:00 TS -10.5000 82.1000 main 1845 1844 O___________O_ jtwc_sh SH041993 -10.5000 82.1000 15 -1 -10.5000 82.1000 TC 15 3 258
1992331S11082 1993 126 SI MM NOT_NAMED 1992-11-26 09:00:00 TS -10.5500 81.9425 main 1843 1853 P___________P_ SH041993 -10.5500 81.9425 15 -1 -10.5500 81.9425 TC 15 3 251
1992331S11082 1993 126 SI MM NOT_NAMED 1992-11-26 12:00:00 TS -10.6000 81.8000 main 1853 1852 O___________O_ jtwc_sh SH041993 -10.6000 81.8000 15 -1 -10.6000 81.8000 TC 15 3 257
1992331S11082 1993 126 SI MM NOT_NAMED 1992-11-26 15:00:00 TS -10.6075 81.6925 main 1852 1852 P___________P_ SH041993 -10.6075 81.6925 15 -1 -10.6075 81.6925 TC 15 2 270
1992331S11082 1993 126 SI MM NOT_NAMED 1992-11-26 18:00:00 TS -10.6000 81.6000 main 1852 1851 O___________O_ jtwc_sh SH041993 -10.6000 81.6000 15 -1 -10.6000 81.6000 TC 15 2 272
1992331S11082 1993 126 SI MM NOT_NAMED 1992-11-26 21:00:00 TS -10.6000 81.5000 main 1851 1850 P___________P_ SH041993 -10.6000 81.5000 15 -1 -10.6000 81.5000 TC 15 2 270
1992331S11082 1993 126 SI MM NOT_NAMED 1992-11-27 00:00:00 TS -10.6000 81.4000 main 1850 1850 O___________O_ jtwc_sh SH041993 -10.6000 81.4000 15 -1 -10.6000 81.4000 TC 15 2 268
1992331S11082 1993 126 SI MM NOT_NAMED 1992-11-27 03:00:00 TS -10.6075 81.3000 main 1850 1850 P___________P_ SH041993 -10.6075 81.3000 15 -1 -10.6075 81.3000 TC 15 2 270
1992331S11082 1993 126 SI MM NOT_NAMED 1992-11-27 06:00:00 TS -10.6000 81.2000 main 1850 1849 O___________O_ jtwc_sh SH041993 -10.6000 81.2000 15 -1 -10.6000 81.2000 TC 15 2 285
1992331S11082 1993 126 SI MM NOT_NAMED 1992-11-27 09:00:00 TS -10.5575 81.1150 main 1849 1838 P___________P_ SH041993 -10.5575 81.1150 15 -1 -10.5575 81.1150 TC 15 2 297
1992331S11082 1993 126 SI MM NOT_NAMED 1992-11-27 12:00:00 TS -10.5000 81.0000 main 1838 1826 O___________O_ jtwc_sh SH041993 -10.5000 81.0000 15 -1 -10.5000 81.0000 TC 15 3 292
1992331S11082 1993 126 SI MM NOT_NAMED 1992-11-27 15:00:00 TS -10.4425 80.8225 main 1826 1826 P___________P_ SH041993 -10.4425 80.8225 15 -1 -10.4425 80.8225 TC 15 4 284
1992331S11082 1993 126 SI MM NOT_NAMED 1992-11-27 18:00:00 TS -10.4000 80.6000 main 1826 1826 O___________O_ jtwc_sh SH041993 -10.4000 80.6000 15 -1 -10.4000 80.6000 TC 15 5 276
1992331S11082 1993 126 SI MM NOT_NAMED 1992-11-27 21:00:00 TS -10.3925 80.3575 main 1826 1826 P___________P_ SH041993 -10.3925 80.3575 15 -1 -10.3925 80.3575 TC 15 5 270
1992331S11082 1993 126 SI MM NOT_NAMED 1992-11-28 00:00:00 TS -10.4000 80.1000 main 1827 1827 O___________O_ jtwc_sh SH041993 -10.4000 80.1000 15 -1 -10.4000 80.1000 TC 15 5 269
1992331S11082 1993 126 SI MM NOT_NAMED 1992-11-28 03:00:00 TS -10.4000 79.8500 main 1828 1828 P___________P_ SH041993 -10.4000 79.8500 15 -1 -10.4000 79.8500 TC 15 5 270
1992331S11082 1993 126 SI MM NOT_NAMED 1992-11-28 06:00:00 TS -10.4000 79.6000 main 1829 1829 O___________O_ jtwc_sh SH041993 -10.4000 79.6000 15 -1 -10.4000 79.6000 TC 15 5 271
1992331S11082 1993 126 SI MM NOT_NAMED 1992-11-28 09:00:00 TS -10.3925 79.3500 main 1832 1832 P___________P_ SH041993 -10.3925 79.3500 15 -1 -10.3925 79.3500 TC 15 5 270
1992331S11082 1993 126 SI MM NOT_NAMED 1992-11-28 12:00:00 TS -10.4000 79.1000 main 1833 1833 O___________O_ jtwc_sh SH041993 -10.4000 79.1000 15 -1 -10.4000 79.1000 TC 15 5 263
1992331S11082 1993 126 SI MM NOT_NAMED 1992-11-28 15:00:00 TS -10.4500 78.8500 main 1836 1836 P___________P_ SH041993 -10.4500 78.8500 15 -1 -10.4500 78.8500 TC 15 5 258
1992331S11082 1993 126 SI MM NOT_NAMED 1992-11-28 18:00:00 TS -10.5000 78.6000 main 1850 1850 O___________O_ jtwc_sh SH041993 -10.5000 78.6000 15 -1 -10.5000 78.6000 TC 15 5 264
1992331S11082 1993 126 SI MM NOT_NAMED 1992-11-28 21:00:00 TS -10.5000 78.3500 main 1855 1855 P___________P_ SH041993 -10.5000 78.3500 15 -1 -10.5000 78.3500 TC 15 5 270
1992331S11082 1993 126 SI MM NOT_NAMED 1992-11-29 00:00:00 TS -10.5000 78.1000 main 1858 1858 O___________O_ jtwc_sh SH041993 -10.5000 78.1000 15 -1 -10.5000 78.1000 TC 15 5 265
1992331S11082 1993 126 SI MM NOT_NAMED 1992-11-29 03:00:00 TS -10.5424 77.8650 main 1861 1861 P___________P_ SH041993 -10.5424 77.8650 15 -1 -10.5424 77.8650 TC 15 5 258
1992331S11082 1993 126 SI MM NOT_NAMED 1992-11-29 06:00:00 TS -10.6000 77.6000 main 1878 1878 O___________O_ jtwc_sh SH041993 -10.6000 77.6000 15 -1 -10.6000 77.6000 TC 15 6 260
1992331S11082 1993 126 SI MM NOT_NAMED 1992-11-29 09:00:00 TS -10.6425 77.2650 main 1884 1884 P___________P_ SH041993 -10.6425 77.2650 15 -1 -10.6425 77.2650 TC 15 7 262
1992331S11082 1993 126 SI MM NOT_NAMED 1992-11-29 12:00:00 TS -10.7000 76.9000 main 1904 1904 O___________O_ jtwc_sh SH041993 -10.7000 76.9000 15 -1 -10.7000 76.9000 TC 15 7 257
1992331S11082 1993 126 SI MM NOT_NAMED 1992-11-29 15:00:00 TS -10.8075 76.5351 main 1925 1925 P___________P_ SH041993 -10.8075 76.5351 15 -1 -10.8075 76.5351 TC 15 7 254
1992331S11082 1993 126 SI MM NOT_NAMED 1992-11-29 18:00:00 TS -10.9000 76.2000 main 1944 1944 O___________O_ jtwc_sh SH041993 -10.9000 76.2000 15 -1 -10.9000 76.2000 TC 15 6 260
1992331S11082 1993 126 SI MM NOT_NAMED 1992-11-29 21:00:00 TS -10.9149 75.9350 main 1953 1953 P___________P_ SH041993 -10.9149 75.9350 15 -1 -10.9149 75.9350 TC 15 5 270
1992331S11082 1993 126 SI MM NOT_NAMED 1992-11-30 00:00:00 TS -10.9000 75.7000 main 1959 1959 O___________O_ jtwc_sh SH041993 -10.9000 75.7000 15 -1 -10.9000 75.7000 TC 15 5 272
1992331S11082 1993 126 SI MM NOT_NAMED 1992-11-30 03:00:00 TS -10.9000 75.4500 main 1965 1968 P___________P_ SH041993 -10.9000 75.4500 15 -1 -10.9000 75.4500 TC 15 5 270
1992331S11082 1993 126 SI MM NOT_NAMED 1992-11-30 06:00:00 TS -10.9000 75.2000 main 1975 1975 O___________O_ jtwc_sh SH041993 -10.9000 75.2000 15 -1 -10.9000 75.2000 TC 15 5 268
1992331S11082 1993 126 SI MM NOT_NAMED 1992-11-30 09:00:00 TS -10.9149 74.9650 main 1982 1982 P___________P_ SH041993 -10.9149 74.9650 15 -1 -10.9149 74.9650 TC 15 5 270
1992331S11082 1993 126 SI MM NOT_NAMED 1992-11-30 12:00:00 TS -10.9000 74.7000 main 1992 1989 O___________O_ jtwc_sh SH041993 -10.9000 74.7000 15 -1 -10.9000 74.7000 TC 15 6 280
1992331S11082 1993 126 SI MM NOT_NAMED 1992-11-30 15:00:00 TS -10.8075 74.3649 main 1992 1989 P___________P_ SH041993 -10.8075 74.3649 15 -1 -10.8075 74.3649 TC 15 7 286
1992331S11082 1993 126 SI MM NOT_NAMED 1992-11-30 18:00:00 TS -10.7000 74.0000 main 1997 1997 O___________O_ jtwc_sh SH041993 -10.7000 74.0000 15 -1 -10.7000 74.0000 TC 15 7 283
1992331S11082 1993 126 SI MM NOT_NAMED 1992-11-30 21:00:00 TS -10.6500 73.6501 main 1998 1980 P___________P_ SH041993 -10.6500 73.6501 15 -1 -10.6500 73.6501 TC 15 7 278
1992331S11082 1993 126 SI MM NOT_NAMED 1992-12-01 00:00:00 TS -10.6000 73.3000 main 1980 1959 O___________O_ jtwc_sh SH041993 -10.6000 73.3000 15 -1 -10.6000 73.3000 TC 15 7 282
1992331S11082 1993 126 SI MM NOT_NAMED 1992-12-01 03:00:00 TS -10.5074 72.9575 main 1959 1930 P___________P_ SH041993 -10.5074 72.9575 15 -1 -10.5074 72.9575 TC 15 7 286
1992331S11082 1993 126 SI MM NOT_NAMED 1992-12-01 06:00:00 TS -10.4000 72.6000 main 1930 1902 O___________O_ jtwc_sh SH041993 -10.4000 72.6000 15 -1 -10.4000 72.6000 TC 15 8 286
1992331S11082 1993 126 SI MM NOT_NAMED 1992-12-01 09:00:00 TS -10.3000 72.2000 main 1902 1874 P___________P_ SH041993 -10.3000 72.2000 15 -1 -10.3000 72.2000 TC 15 8 284
1992331S11082 1993 126 SI MM NOT_NAMED 1992-12-01 12:00:00 TS -10.2000 71.8000 main 1874 1855 O___________O_ jtwc_sh SH041993 -10.2000 71.8000 15 -1 -10.2000 71.8000 TC 15 8 285
1992331S11082 1993 126 SI MM NOT_NAMED 1992-12-01 15:00:00 TS -10.0999 71.4575 main 1855 1828 P___________P_ SH041993 -10.0999 71.4575 15 -1 -10.0999 71.4575 TC 15 7 286
1992331S11082 1993 126 SI MM NOT_NAMED 1992-12-01 18:00:00 TS -10.0000 71.1000 main 1828 1802 O___________O_ jtwc_sh SH041993 -10.0000 71.1000 15 -1 -10.0000 71.1000 TC 15 8 285
1992331S11082 1993 126 SI MM NOT_NAMED 1992-12-01 21:00:00 TS -9.89989 70.6875 main 1802 1768 P___________P_ SH041993 -9.89989 70.6875 20 -1 -9.89989 70.6875 TC 20 9 283
1992331S11082 1993 126 SI MM NOT_NAMED 1992-12-02 00:00:00 TS -9.80000 70.2000 main 1768 1735 O___________O_ jtwc_sh SH041993 -9.80000 70.2000 25 -1 -9.80000 70.2000 TC 25 11 281
1992331S11082 1993 126 SI MM NOT_NAMED 1992-12-02 03:00:00 TS -9.69996 69.6300 main 1727 1688 P___________P_ SH041993 -9.69996 69.6300 25 -1 -9.69996 69.6300 TC 25 12 280
1992331S11082 1993 126 SI MM NOT_NAMED 1992-12-02 06:00:00 TS -9.60000 69.0000 main 1688 1651 O___________O_ jtwc_sh SH041993 -9.60000 69.0000 25 -1 -9.60000 69.0000 TC 25 13 280
1992331S11082 1993 126 SI MM NOT_NAMED 1992-12-02 09:00:00 TS -9.47746 68.3499 main 1644 1608 P___________P_ SH041993 -9.47746 68.3499 25 -1 -9.47746 68.3499 TC 25 13 279
1992331S11082 1993 126 SI MM NOT_NAMED 1992-12-02 12:00:00 TS -9.40000 67.7000 main 1608 1566 O___________O_ jtwc_sh SH041993 -9.40000 67.7000 25 -1 -9.40000 67.7000 TC 25 12 272
1992331S11082 1993 126 SI MM NOT_NAMED 1992-12-02 15:00:00 TS -9.42732 67.1001 main 1566 1516 P___________P_ SH041993 -9.42732 67.1001 25 -1 -9.42732 67.1001 TC 25 12 265
1992331S11082 1993 126 SI MM NOT_NAMED 1992-12-02 18:00:00 TS -9.50000 66.5000 main 1516 1477 O___________O_ jtwc_sh SH041993 -9.50000 66.5000 25 -1 -9.50000 66.5000 TC 25 12 264
1992331S11082 1993 126 SI MM NOT_NAMED 1992-12-02 21:00:00 TS -9.54996 65.8500 main 1471 1424 P___________P_ SH041993 -9.54996 65.8500 25 -1 -9.54996 65.8500 TC 25 13 266
1992331S11082 1993 126 SI MM NOT_NAMED 1992-12-03 00:00:00 TS -9.60000 65.2000 main 1424 1389 O___________O_ jtwc_sh SH041993 -9.60000 65.2000 25 -1 -9.60000 65.2000 TC 25 13 266
1992331S11082 1993 126 SI MM NOT_NAMED 1992-12-03 03:00:00 TS -9.64243 64.5775 main 1389 1346 P___________P_ SH041993 -9.64243 64.5775 25 -1 -9.64243 64.5775 TC 25 12 265
1992331S11082 1993 126 SI MM NOT_NAMED 1992-12-03 06:00:00 TS -9.70000 64.0000 main 1346 1310 O___________O_ jtwc_sh SH041993 -9.70000 64.0000 25 -1 -9.70000 64.0000 TC 25 11 262
1992331S11082 1993 126 SI MM NOT_NAMED 1992-12-03 09:00:00 TS -9.79989 63.4775 main 1310 1275 P___________P_ SH041993 -9.79989 63.4775 25 -1 -9.79989 63.4775 TC 25 10 259
1992331S11082 1993 126 SI MM NOT_NAMED 1992-12-03 12:00:00 TS -9.90000 63.0000 main 1275 1246 O___________O_ jtwc_sh SH041993 -9.90000 63.0000 25 -1 -9.90000 63.0000 TC 25 10 260
1992331S11082 1993 126 SI MM NOT_NAMED 1992-12-03 15:00:00 TS -9.96496 62.5275 main 1242 1225 P___________P_ SH041993 -9.96496 62.5275 25 -1 -9.96496 62.5275 TC 25 9 264
1992331S11082 1993 126 SI MM NOT_NAMED 1992-12-03 18:00:00 TS -10.0000 62.1000 main 1225 1213 O___________O_ jtwc_sh SH041993 -10.0000 62.1000 25 -1 -10.0000 62.1000 TC 25 8 267
1992331S11082 1993 126 SI MM NOT_NAMED 1992-12-03 21:00:00 TS -10.0074 61.7425 main 1209 1198 P___________P_ SH041993 -10.0074 61.7425 25 -1 -10.0074 61.7425 TC 25 7 270
1992331S11082 1993 126 SI MM NOT_NAMED 1992-12-04 00:00:00 TS -10.0000 61.4000 main 1198 1184 O___________O_ jtwc_sh SH041993 -10.0000 61.4000 25 -1 -10.0000 61.4000 TC 25 7 271
1992331S11082 1993 126 SI MM NOT_NAMED 1992-12-04 03:00:00 TS -10.0000 61.0000 main 1184 1172 P___________P_ SH041993 -10.0000 61.0000 25 -1 -10.0000 61.0000 TC 25 8 270
1992331S11082 1993 126 SI MM NOT_NAMED 1992-12-04 06:00:00 TS -10.0000 60.6000 main 1172 1164 O___________O_ jtwc_sh SH041993 -10.0000 60.6000 25 -1 -10.0000 60.6000 TC 25 7 270
1992331S11082 1993 126 SI MM NOT_NAMED 1992-12-04 09:00:00 TS -9.99994 60.2425 main 1161 1140 P___________P_ SH041993 -9.99994 60.2425 22 -1 -9.99994 60.2425 TC 22 7 270
1992331S11082 1993 126 SI MM NOT_NAMED 1992-12-04 12:00:00 TS -10.0000 59.9000 main 1140 1109 O___________O_ jtwc_sh SH041993 -10.0000 59.9000 20 -1 -10.0000 59.9000 TC 20 7 269
1992331S11082 1993 126 SI MM NOT_NAMED 1992-12-04 15:00:00 TS -10.0075 59.5500 main 1109 1085 P___________P_ SH041993 -10.0075 59.5500 20 -1 -10.0075 59.5500 TC 20 6 287
1992331S11082 1993 126 SI MM NOT_NAMED 1992-12-04 18:00:00 TS -9.83333 59.3333 20 1006 reunion main 1085 1069 O____O______O_ jtwc_sh SH041993 -10.0000 59.2000 20 -1 -8.50000 60.4000 1 20 1006 1.50000 1.50000 -10.0000 59.2000 TC 20 6 305
1992331S11082 1993 126 SI MM NOT_NAMED 1992-12-04 21:00:00 TS -9.66199 59.0460 main 1059 1037 P____P______P_ SH041993 -9.94994 58.8575 20 -1 -8.51018 59.8000 1 20 1006 -9.94994 58.8575 TC 20 7 296
1992331S11082 1993 126 SI MM NOT_NAMED 1992-12-05 00:00:00 TS -9.51818 58.6909 20 1006 reunion main 1037 1001 O____O______O_ jtwc_sh SH041993 -9.90000 58.5000 20 -1 -8.50000 59.2000 1 20 1006 1.50000 1.50000 -9.90000 58.5000 TC 20 8 288
1992331S11082 1993 126 SI MM NOT_NAMED 1992-12-05 03:00:00 TS -9.41912 58.2717 main 1001 951 P____P______P_ SH041993 -9.89998 58.1076 20 -1 -8.45741 58.6000 1 20 1006 -9.89998 58.1076 TC 20 9 278
1992331S11082 1993 126 SI MM NOT_NAMED 1992-12-05 06:00:00 TS -9.40000 57.8000 20 1006 reunion main 951 912 O____O______O_ jtwc_sh SH041993 -9.90000 57.7000 20 -1 -8.40000 58.0000 1 20 1006 1.50000 1.50000 -9.90000 57.7000 TC 20 9 274
1992331S11082 1993 126 SI MM NOT_NAMED 1992-12-05 09:00:00 TS -9.34992 57.3383 main 907 869 P____P______P_ SH041993 -9.84993 57.3075 20 -1 -8.34991 57.4000 1 20 1006 -9.84993 57.3075 TC 20 9 276
1992331S11082 1993 126 SI MM NOT_NAMED 1992-12-05 12:00:00 TS -9.30000 56.8667 20 1006 reunion main 869 821 O____O______O_ jtwc_sh SH041993 -9.80000 56.9000 20 -1 -8.30000 56.8000 1 20 1006 1.50000 1.50000 -9.80000 56.9000 TC 20 10 274
1992331S11082 1993 126 SI MM NOT_NAMED 1992-12-05 15:00:00 TS -9.28077 56.3742 main 821 775 P____P______P_ SH041993 -9.79994 56.4651 22 -1 -8.24244 56.1925 1 20 1006 -9.79994 56.4651 TC 22 10 272
1992331S11082 1993 126 SI MM NOT_NAMED 1992-12-05 18:00:00 TS -9.26667 55.8667 20 1006 reunion main 775 735 O____O______O_ jtwc_sh SH041993 -9.80000 56.0000 25 -1 -8.20000 55.6000 1 20 1006 1.50000 1.50000 -9.80000 56.0000 TC 25 10 272
1992331S11082 1993 126 SI MM NOT_NAMED 1992-12-05 21:00:00 TS -9.23827 55.3525 main 735 688 P____P______P_ SH041993 -9.75742 55.5150 25 -1 -8.19995 55.0276 1 20 1006 -9.75742 55.5150 TC 25 10 274
1992331S11082 1993 126 SI MM NOT_NAMED 1992-12-06 00:00:00 TS -9.20000 54.8333 20 1006 reunion main 679 641 O____O______O_ jtwc_sh SH041993 -9.70000 55.0000 25 -1 -8.20000 54.5000 1 20 1006 1.50000 1.50000 -9.70000 55.0000 TC 25 10 275
1992331S11082 1993 126 SI MM NOT_NAMED 1992-12-06 03:00:00 TS -9.15492 54.3217 main 632 593 P____P______P_ SH041993 -9.65748 54.4500 25 -1 -8.14978 54.0650 1 20 1005 -9.65748 54.4500 TC 25 10 276
1992331S11082 1993 126 SI MM NOT_NAMED 1992-12-06 06:00:00 TS -9.10000 53.8000 20 1004 reunion main 593 557 O____O______O_ jtwc_sh SH041993 -9.60000 53.9000 25 -1 -8.10000 53.6000 1 20 1004 1.50000 1.50000 -9.60000 53.9000 TC 25 11 276
1992331S11082 1993 126 SI MM NOT_NAMED 1992-12-06 09:00:00 TS -9.03833 53.2400 main 548 508 P____P______P_ SH041993 -9.50743 53.3850 25 -1 -8.10015 52.9501 1 20 1004 -9.50743 53.3850 TC 25 11 277
1992331S11082 1993 126 SI MM NOT_NAMED 1992-12-06 12:00:00 TS -8.96667 52.7000 20 1004 reunion main 508 478 O____O______O_ jtwc_sh SH041993 -9.40000 52.9000 25 -1 -8.10000 52.3000 1 20 1004 1.50000 1.50000 -9.40000 52.9000 TC 25 10 279
1992331S11082 1993 126 SI MM NOT_NAMED 1992-12-06 15:00:00 TS -8.88825 52.2250 main 478 459 P____P______P_ SH041993 -9.30744 52.4351 25 -1 -8.04988 51.8050 1 21 1003 -9.30744 52.4351 TC 25 9 281
1992331S11082 1993 126 SI MM NOT_NAMED 1992-12-06 18:00:00 TS -8.80000 51.8000 23 1002 reunion main 459 444 O____O______O_ jtwc_sh SH041993 -9.20000 52.0000 25 -1 -8.00000 51.4000 2 23 1002 2.00000 2.00000 -9.20000 52.0000 TC 25 8 283
1992331S11082 1993 126 SI MM NOT_NAMED 1992-12-06 21:00:00 TS -8.69494 51.4042 main 444 438 P____P______P_ SH041993 -9.04995 51.5850 25 -1 -7.98491 51.0425 2 23 1002 -9.04995 51.5850 TC 25 8 285
1992331S11082 1993 126 SI MM NOT_NAMED 1992-12-07 00:00:00 TS -8.60000 51.0333 23 1002 reunion main 433 425 O____O______O_ jtwc_sh SH041993 -8.90000 51.2000 25 -1 -8.00000 50.7000 2 23 1002 2.00000 2.00000 -8.90000 51.2000 TC 25 8 282
1992331S11082 1993 126 SI MM NOT_NAMED 1992-12-07 03:00:00 TS -8.53748 50.6542 main 431 417 P____P______P_ SH041993 -8.78496 50.8350 27 -1 -8.04252 50.2925 2 23 1001 -8.78496 50.8350 TC 27 7 278
1992331S11082 1993 126 SI MM NOT_NAMED 1992-12-07 06:00:00 TS -8.50000 50.3000 24 1000 reunion main 417 410 O____O______O_ jtwc_sh SH041993 -8.70000 50.5000 30 -1 -8.10000 49.9000 2 24 1000 2.00000 2.00000 -8.70000 50.5000 TC 30 7 276
1992331S11082 1993 126 SI MM NOT_NAMED 1992-12-07 09:00:00 TS -8.46827 49.9950 main 410 405 P____P______P_ SH041993 -8.63496 50.1925 30 -1 -8.13490 49.5999 2 25 999 -8.63496 50.1925 TC 30 6 273
1992331S11082 1993 126 SI MM NOT_NAMED 1992-12-07 12:00:00 TS -8.46667 49.7000 27 998 reunion main 405 403 O____O______O_ jtwc_sh SH041993 -8.60000 49.9000 30 -1 -8.20000 49.3000 2 27 998 2.50000 2.50000 -8.60000 49.9000 TC 30 6 266
1992331S11082 1993 126 SI MM NOT_NAMED 1992-12-07 15:00:00 TS -8.50918 49.3617 main 403 392 P____P______P_ SH041993 -8.59248 49.6000 32 -1 -8.34258 48.8851 2 27 997 -8.59248 49.6000 TC 32 7 261
1992331S11082 1993 126 SI MM NOT_NAMED 1992-12-07 18:00:00 TS -8.56667 49.0333 28 997 reunion main 392 392 O____O______O_ jtwc_sh SH041993 -8.60000 49.3000 35 0 -8.50000 48.5000 2 28 997 2.50000 2.50000 -8.60000 49.3000 TC 35 6 261
1992331S11082 1993 126 SI MM NOT_NAMED 1992-12-07 21:00:00 TS -8.60496 48.7542 main 394 394 P____P______P_ SH041993 -8.59998 49.0000 35 0 -8.61494 48.2625 2 28 997 -8.59998 49.0000 TC 35 5 263
1992331S11082 1993 126 SI MM NOT_NAMED 1992-12-08 00:00:00 TS -8.63333 48.5000 28 997 reunion main 399 390 O____O______O_ jtwc_sh SH041993 -8.60000 48.7000 35 0 -8.70000 48.1000 2 28 997 2.00000 2.50000 -8.60000 48.7000 TC 35 5 263
1992331S11082 1993 126 SI MM NOT_NAMED 1992-12-08 03:00:00 TS -8.66247 48.2550 main 393 393 P____P______P_ SH041993 -8.60749 48.3925 35 0 -8.77241 47.9800 2 27 997 -8.60749 48.3925 TC 35 5 266
1992331S11082 1993 126 SI MM NOT_NAMED 1992-12-08 06:00:00 TS -8.66667 48.0000 27 998 reunion main 402 402 O____O______O_ jtwc_sh SH041993 -8.60000 48.1000 35 0 -8.80000 47.8000 2 27 998 2.50000 2.50000 -8.60000 48.1000 TC 35 6 274
1992331S11082 1993 126 SI MM NOT_NAMED 1992-12-08 09:00:00 TS -8.62421 47.6850 main 425 425 P____P______P_ SH041993 -8.54997 47.8425 35 0 -8.77268 47.3699 2 27 998 -8.54997 47.8425 TC 35 6 280
1992331S11082 1993 126 SI MM NOT_NAMED 1992-12-08 12:00:00 TS -8.56667 47.4000 27 998 reunion main 438 438 O____O______O_ jtwc_sh SH041993 -8.50000 47.6000 35 0 -8.70000 47.0000 2 27 998 2.00000 2.50000 -8.50000 47.6000 TC 35 5 282
1992331S11082 1993 126 SI MM NOT_NAMED 1992-12-08 15:00:00 TS -8.52581 47.2325 main 458 458 P____P______P_ SH041993 -8.49248 47.3500 35 0 -8.59245 46.9975 2 27 998 -8.49248 47.3500 TC 35 3 283
1992331S11082 1993 126 SI MM NOT_NAMED 1992-12-08 18:00:00 TS -8.50000 47.1000 27 998 reunion main 464 464 O____O______O_ jtwc_sh SH041993 -8.50000 47.1000 35 0 -8.50000 47.1000 2 27 998 2.00000 2.50000 -8.50000 47.1000 TC 35 3 275
1992331S11082 1993 126 SI MM NOT_NAMED 1992-12-08 21:00:00 TS -8.49748 46.9317 main 475 475 P____P______P_ SH041993 -8.49998 46.8500 35 0 -8.49247 47.0950 2 27 998 -8.49998 46.8500 TC 35 4 270
1992331S11082 1993 126 SI MM NOT_NAMED 1992-12-09 00:00:00 TS -8.50000 46.7333 27 998 reunion main 487 487 O____O______O_ jtwc_sh SH041993 -8.50000 46.6000 35 0 -8.50000 47.0000 2 27 998 2.00000 2.50000 -8.50000 46.6000 TC 35 4 273
1992331S11082 1993 126 SI MM NOT_NAMED 1992-12-09 03:00:00 TS -8.47834 46.4883 main 499 499 P____P______P_ SH041993 -8.50748 46.3500 32 -1 -8.42005 46.7649 2 25 999 -8.50748 46.3500 TC 32 5 274
1992331S11082 1993 126 SI MM NOT_NAMED 1992-12-09 06:00:00 TS -8.46667 46.2333 23 1000 reunion main 520 520 O____O______O_ jtwc_sh SH041993 -8.50000 46.1000 30 -1 -8.40000 46.5000 2 23 1000 2.00000 2.50000 -8.50000 46.1000 TC 30 5 267
1992331S11082 1993 126 SI MM NOT_NAMED 1992-12-09 09:00:00 TS -8.50249 46.0042 main 534 534 P____P______P_ SH041993 -8.45000 45.8425 30 -1 -8.60748 46.3276 2 23 1000 -8.45000 45.8425 TC 30 4 261
1992331S11082 1993 126 SI MM NOT_NAMED 1992-12-09 12:00:00 TS -8.53333 45.8000 23 1000 reunion main 548 548 O____O______O_ jtwc_sh SH041993 -8.40000 45.6000 30 -1 -8.80000 46.2000 2 23 1000 2.00000 2.00000 -8.40000 45.6000 TC 30 4 268
1992331S11082 1993 126 SI MM NOT_NAMED 1992-12-09 15:00:00 TS -8.51745 45.6459 main 563 563 P____P______P_ SH041993 -8.39246 45.4000 30 -1 -8.76742 46.1376 2 23 1000 -8.39246 45.4000 TC 30 3 281
1992331S11082 1993 126 SI MM NOT_NAMED 1992-12-09 18:00:00 TS -8.46667 45.4667 23 1000 reunion main 571 566 O____O______O_ jtwc_sh SH041993 -8.40000 45.2000 30 -1 -8.60000 46.0000 6 23 1000 1.50000 2.00000 -8.40000 45.2000 TC 30 5 286
1992331S11082 1993 126 SI MM NOT_NAMED 1992-12-09 21:00:00 TS -8.39084 45.1916 main 566 543 P____P______P_ SH041993 -8.41498 44.9650 30 -1 -8.34256 45.6448 6 22 1001 -8.41498 44.9650 TC 30 6 283
1992331S11082 1993 126 SI MM NOT_NAMED 1992-12-10 00:00:00 TS -8.31818 44.8364 21 1002 reunion main 533 505 O____O______O_ jtwc_sh SH041993 -8.40000 44.7000 30 -1 -8.10000 45.2000 6 21 1002 1.50000 2.00000 -8.40000 44.7000 TC 30 7 280
1992331S11082 1993 126 SI MM NOT_NAMED 1992-12-10 03:00:00 TS -8.26450 44.4830 main 505 484 P____P______P_ SH041993 -8.32999 44.4075 27 -1 -8.00252 44.7851 6 20 1003 -8.32999 44.4075 TC 27 7 281
1992331S11082 1993 126 SI MM NOT_NAMED 1992-12-10 06:00:00 TS -8.17778 44.1333 20 1005 reunion main 475 456 O____O______O_ jtwc_sh SH041993 -8.20000 44.1000 25 -1 -8.00000 44.4000 6 20 1005 1.50000 1.50000 -8.20000 44.1000 TC 25 7 289
1992331S11082 1993 126 SI MM NOT_NAMED 1992-12-10 09:00:00 TS -8.03000 43.7850 main 463 437 P___________P_ SH041993 -8.03000 43.7850 25 -1 6 -8.03000 43.7850 TC 25 7 301
1992331S11082 1993 126 SI MM NOT_NAMED 1992-12-10 12:00:00 TS -7.80000 43.5000 main 437 410 O___________O_ jtwc_sh SH041993 -7.80000 43.5000 25 -1 -7.80000 43.5000 TC 25 7 315
1992331S11082 1993 126 SI MM NOT_NAMED 1992-12-10 15:00:00 TS -7.51498 43.2700 main 410 386 P___________P_ SH041993 -7.51498 43.2700 25 -1 -7.51498 43.2700 TC 25 7 327
1992331S11082 1993 126 SI MM NOT_NAMED 1992-12-10 18:00:00 TS -7.20000 43.1000 main 386 375 O___________O_ jtwc_sh SH041993 -7.20000 43.1000 25 -1 -7.20000 43.1000 TC 25 7 335
1992331S11082 1993 126 SI MM NOT_NAMED 1992-12-10 21:00:00 TS -6.89501 42.9850 main 375 365 P___________P_ SH041993 -6.89501 42.9850 25 -1 -6.89501 42.9850 TC 25 6 342
1992331S11082 1993 126 SI MM NOT_NAMED 1992-12-11 00:00:00 TS -6.60000 42.9000 main 365 O___________O_ jtwc_sh SH041993 -6.60000 42.9000 25 -1 -6.60000 42.9000 TC 25 6 343

IBTrACS Databaseについて

本データベースは、米国NOAAが公開する1842年以降の世界の熱帯低気圧のベストトラックデータアーカイブInternational Best Track Archive for Climate Stewardship (IBTrACS)を、ウェブで閲覧しやすい形式に変換したものです。

最終更新日:2021-11-26